This is the latest recevied weather packets stored in our database for station/object SQ2ODE-13. If no packets are shown the sender has not sent any weather packets the latest 10 day(s).
| Time | Temp. | Humidity | Pressure | Rain* | Wind** | Luminosity | Snow |
|---|---|---|---|---|---|---|---|
| 1777590339 | 8.89° C | 48% | 1023.2 hPa | 0 mm | - | - | - |
| 1777588528 | 10° C | 46% | 1023.2 hPa | 0 mm | - | - | - |
| 1777584967 | 10.56° C | 44% | 1023 hPa | 0 mm | - | - | - |
| 1777581948 | 12.22° C | 41% | 1023.1 hPa | 0 mm | - | - | - |
| 1777580780 | 12.22° C | 38% | 1023.2 hPa | 0 mm | - | - | - |
| 1777580137 | 12.78° C | 38% | 1023.2 hPa | 0 mm | - | - | - |
| 1777578929 | 12.78° C | 37% | 1023.2 hPa | 0 mm | - | - | - |
| 1777577118 | 12.78° C | 39% | 1023 hPa | 0 mm | - | - | - |
| 1777576575 | 12.78° C | 39% | 1023.1 hPa | 0 mm | - | - | - |
| 1777574759 | 13.89° C | 36% | 1023 hPa | 0 mm | - | - | - |
| 1777572940 | 15° C | 36% | 1022.7 hPa | 0 mm | - | - | - |
| 1777571170 | 15.56° C | 41% | 1022.6 hPa | 0 mm | - | - | - |
| 1777566396 | 15.56° C | 40% | 1022.8 hPa | 0 mm | - | - | - |
| 1777563345 | 16.11° C | 37% | 1023.4 hPa | 0 mm | - | - | - |
| 1777562135 | 15° C | 39% | 1023.6 hPa | 0 mm | - | - | - |
| 1777557348 | 15° C | 35% | 1024.1 hPa | 0 mm | - | - | - |
| 1777556742 | 15° C | 34% | 1024.1 hPa | 0 mm | - | - | - |
| 1777555531 | 15° C | 34% | 1024.3 hPa | 0 mm | - | - | - |
| 1777552564 | 14.44° C | 32% | 1024.9 hPa | 0 mm | - | - | - |
| 1777551358 | 15° C | 31% | 1025 hPa | 0 mm | - | - | - |
| 1777547173 | 14.44° C | 26% | 1025.5 hPa | 0 mm | - | - | - |
| 1777546567 | 13.89° C | 27% | 1025.7 hPa | 0 mm | - | - | - |
| 1777545961 | 13.33° C | 29% | 1025.8 hPa | 0 mm | - | - | - |
| 1777542329 | 11.67° C | 29% | 1026.6 hPa | 0 mm | - | - | - |
| 1777541118 | 11.11° C | 30% | 1026.4 hPa | 0 mm | - | - | - |
* Rain latest 24 hours (hover to see other rain measurements)
** Current wind speed in m/s (hover to see current wind gust speed)